Airfield :
LOGIN :

Register | Disclaimer

   EN    FR    IT 

 










Legend :    VFR   Marginal VFR   IFR   Intensive IFR   Very Intensive IFR
Visi :
Ceiling :
>= 8 km
>= 3000ft
5 to 8 km
1000 to 3000 ft
1500m to 5 km
500 to 1000 ft
800 to 1500m
200 to 500 ft
< 800m
< 200 ft
Symbols :   Thunderstorms  Fog  Heavy snow  Heavy precipitations  Wind > 20 kt
SIGMETs :     Misc.  Thunderstorms  Icing  Turbulence  Mountain Waves  Volcanic Ashes







- Airport Elevation : 1521 ft
- IATA code : NCY
- Download approach charts


LFLP - Annecy

CURRENT METAR :
  • 160500Z AUTO 00000KT 3000 -SN BR BKN004 BKN009 OVC013 00/M00 Q1007 TEMPO 1200 SN

EXPIRED METARs :
  • 160430Z AUTO 00000KT 2400 SN BR BKN004 OVC010 00/M00 Q1007 TEMPO 1200 SN
  • 160400Z AUTO 21004KT 5000 -SN BR BKN009 BKN017 OVC024 01/00 Q1006 TEMPO 1200 SN OVC003
  • 160330Z AUTO 21006KT 9999 -SNRA FEW008 SCT016 BKN029 01/00 Q1006 TEMPO 1200 SN OVC003
  • 160300Z AUTO 21005KT 180V240 9999 -RA BKN008 OVC017 01/01 Q1006 TEMPO 1200 SN OVC003
  • 160230Z AUTO 18004KT 160V220 9999 -RA BKN010 OVC015 01/01 Q1005 TEMPO 1200 SN OVC003

TAF TAF LFLP
Valid from the 16 at 03:00 until the 17 at 03:00 UTC


160200Z 1603/1703 VRB03KT 9999 BKN014
TEMPO 1603/1615 4000 -SNRA OVC008
PROB40
TEMPO 1603/1612 1200 SN OVC003
No reported NOTAMs for that airfield.
1 SIGMET reported for the Marseille FIR (LFMM) :
 
Severe mountain waves
LFMM SIGMET 1 VALID 160400/160800 LFPW
LFMM MARSEILLE FIR/UIR SEV MTW FCST E OF E00900 SFC/FL400 STNR NC=



MET'MAP, your aeronautical weather chart ! - Copyright ORBIFLY December 2007 - Disclaimer

ORBIFLY MET'MAP TEAM :

Programming & Development : Alexandra Zaïnal
Concept & Development : Baudouin d'Aumeries
Co-Development & Prog : Marc-Olivier Méhu
Technical & hardware support : Manuel Goepfert

Contact : metmap@orbifly.com




SOURCES & CREDITS :

   NOAA